createdAt,value
2024-03-16T00:02:03.601Z,99188.63
2024-03-16T00:04:30.474Z,99188.00
2024-03-16T00:06:59.119Z,99183.28
2024-03-16T00:09:26.039Z,99181.88
2024-03-16T00:11:52.785Z,99182.38
2024-03-16T00:14:19.285Z,99191.97
2024-03-16T00:16:45.818Z,99180.34
2024-03-16T00:19:12.411Z,99190.97
2024-03-16T00:21:39.016Z,99175.34
2024-03-16T00:24:05.804Z,99188.19
2024-03-16T00:26:32.298Z,99181.00
2024-03-16T00:28:59.516Z,99173.97
2024-03-16T00:31:26.137Z,99166.78
2024-03-16T00:33:52.728Z,99185.03
2024-03-16T00:36:19.259Z,99168.00
2024-03-16T00:38:50.784Z,99172.13
2024-03-16T00:41:21.230Z,99181.63
2024-03-16T00:43:47.733Z,99180.34
2024-03-16T00:46:14.378Z,99184.66
2024-03-16T00:48:41.155Z,99189.06
2024-03-16T00:51:07.794Z,99186.34
2024-03-16T00:53:34.414Z,99176.47
2024-03-16T00:56:00.994Z,99173.56
2024-03-16T00:58:28.541Z,99181.69
2024-03-16T01:00:55.193Z,99180.84
2024-03-16T01:03:21.915Z,99187.09
2024-03-16T01:05:54.484Z,99180.06
2024-03-16T01:08:20.983Z,99176.25
2024-03-16T01:10:55.215Z,99192.50
2024-03-16T01:13:22.459Z,99177.88
2024-03-16T01:15:49.252Z,99182.97
2024-03-16T01:18:15.793Z,99181.06
2024-03-16T01:20:45.828Z,99202.09
2024-03-16T01:23:14.239Z,99190.06
2024-03-16T01:25:41.261Z,99197.25
2024-03-16T01:28:07.898Z,99208.91
2024-03-16T01:30:34.485Z,99211.91
2024-03-16T01:33:01.113Z,99214.47
2024-03-16T01:35:27.743Z,99211.97
2024-03-16T01:37:54.353Z,99206.56
2024-03-16T01:40:25.834Z,99207.75
2024-03-16T01:42:55.793Z,99200.81
2024-03-16T01:45:22.500Z,99201.00
2024-03-16T01:47:49.074Z,99196.19
2024-03-16T01:50:19.753Z,99198.81
2024-03-16T01:52:47.901Z,99200.53
2024-03-16T01:55:16.252Z,99204.97
2024-03-16T01:57:43.024Z,99194.44
2024-03-16T02:00:13.127Z,99185.66
2024-03-16T02:02:40.905Z,99188.66
2024-03-16T02:05:08.644Z,99191.84
2024-03-16T02:07:38.068Z,99192.16
2024-03-16T02:10:06.325Z,99187.75
2024-03-16T02:12:33.201Z,99188.03
2024-03-16T02:15:00.701Z,99191.06
2024-03-16T02:17:27.774Z,99185.53
2024-03-16T02:19:54.406Z,99191.44
2024-03-16T02:22:20.885Z,99190.81
2024-03-16T02:24:50.592Z,99191.03
2024-03-16T02:27:17.541Z,99200.25
2024-03-16T02:29:44.203Z,99196.59
2024-03-16T02:32:11.027Z,99206.44
2024-03-16T02:34:38.469Z,99210.47
2024-03-16T02:37:06.425Z,99215.50
2024-03-16T02:39:33.839Z,99205.47
2024-03-16T02:42:01.650Z,99209.47
2024-03-16T02:44:28.253Z,99205.66
2024-03-16T02:46:54.794Z,99206.44
2024-03-16T02:49:23.932Z,99208.53
2024-03-16T02:51:50.546Z,99214.47
2024-03-16T02:54:17.678Z,99208.44
2024-03-16T02:56:44.236Z,99218.94
2024-03-16T02:59:10.979Z,99224.06
2024-03-16T03:01:38.666Z,99219.78
2024-03-16T03:04:06.614Z,99225.69
2024-03-16T03:06:34.644Z,99226.66
2024-03-16T03:09:01.709Z,99224.94
2024-03-16T03:11:28.292Z,99225.63
2024-03-16T03:13:54.998Z,99220.50
2024-03-16T03:16:21.534Z,99223.81
2024-03-16T03:18:49.020Z,99228.47
2024-03-16T03:21:16.174Z,99224.94
2024-03-16T03:23:43.047Z,99233.06
2024-03-16T03:26:10.635Z,99234.25
2024-03-16T03:28:37.343Z,99234.25
2024-03-16T03:31:05.081Z,99240.63
2024-03-16T03:33:32.127Z,99239.72
2024-03-16T03:36:00.679Z,99237.16
2024-03-16T03:38:27.489Z,99242.44
2024-03-16T03:40:53.984Z,99251.06
2024-03-16T03:43:22.801Z,99254.38
2024-03-16T03:45:53.783Z,99250.69
2024-03-16T03:48:24.204Z,99261.50
2024-03-16T03:50:50.802Z,99259.28
2024-03-16T03:53:18.191Z,99260.69
2024-03-16T03:55:45.086Z,99259.09
2024-03-16T03:58:11.840Z,99263.72
2024-03-16T04:00:38.908Z,99264.22
2024-03-16T04:03:07.714Z,99259.47
2024-03-16T04:05:34.802Z,99270.50
2024-03-16T04:08:01.984Z,99269.38
2024-03-16T04:10:28.737Z,99267.19
2024-03-16T04:12:55.423Z,99270.50
2024-03-16T04:15:22.053Z,99275.28
2024-03-16T04:17:48.642Z,99268.28
2024-03-16T04:20:15.252Z,99279.59
2024-03-16T04:22:42.651Z,99291.38
2024-03-16T04:25:15.150Z,99284.16
2024-03-16T04:27:47.232Z,99279.22
2024-03-16T04:30:14.799Z,99286.75
2024-03-16T04:32:41.390Z,99278.25
2024-03-16T04:35:08.772Z,99286.97
2024-03-16T04:37:36.189Z,99297.59
2024-03-16T04:40:05.454Z,99295.19
2024-03-16T04:42:32.408Z,99295.19
2024-03-16T04:44:58.965Z,99293.00
2024-03-16T04:47:25.497Z,99307.03
2024-03-16T04:49:52.067Z,99301.72
2024-03-16T04:52:18.639Z,99303.94
2024-03-16T04:54:46.312Z,99306.63
2024-03-16T04:57:13.750Z,99309.84
2024-03-16T04:59:41.007Z,99310.31
2024-03-16T05:02:07.818Z,99307.81
2024-03-16T05:04:34.652Z,99312.25
2024-03-16T05:07:01.289Z,99307.25
2024-03-16T05:09:28.033Z,99307.56
2024-03-16T05:11:54.729Z,99308.34
2024-03-16T05:14:21.424Z,99300.56
2024-03-16T05:16:47.969Z,99303.25
2024-03-16T05:19:14.513Z,99318.06
2024-03-16T05:21:42.151Z,99311.06
2024-03-16T05:24:08.811Z,99318.19
2024-03-16T05:26:35.751Z,99322.50
2024-03-16T05:29:02.613Z,99323.72
2024-03-16T05:31:29.157Z,99329.72
2024-03-16T05:33:55.746Z,99328.41
2024-03-16T05:36:22.340Z,99332.44
2024-03-16T05:38:48.946Z,99346.75
2024-03-16T05:41:15.905Z,99351.38
2024-03-16T05:43:45.662Z,99352.50
2024-03-16T05:46:12.874Z,99354.66
2024-03-16T05:48:39.886Z,99361.50
2024-03-16T05:51:06.627Z,99359.38
2024-03-16T05:53:33.202Z,99360.94
2024-03-16T05:55:59.796Z,99378.69
2024-03-16T05:58:26.964Z,99378.69
2024-03-16T06:00:53.647Z,99377.28
2024-03-16T06:03:20.339Z,99381.41
2024-03-16T06:05:47.011Z,99384.63
2024-03-16T06:08:15.215Z,99387.81
2024-03-16T06:10:42.838Z,99395.66
2024-03-16T06:13:11.775Z,99402.06
2024-03-16T06:15:40.542Z,99405.47
2024-03-16T06:18:07.644Z,99410.19
2024-03-16T06:20:34.266Z,99423.94
2024-03-16T06:23:00.816Z,99428.75
2024-03-16T06:25:30.455Z,99439.38
2024-03-16T06:28:06.903Z,99437.16
2024-03-16T06:30:34.201Z,99443.59
2024-03-16T06:33:07.228Z,99442.41
2024-03-16T06:35:34.650Z,99438.75
2024-03-16T06:38:01.242Z,99443.59
2024-03-16T06:40:27.845Z,99453.72
2024-03-16T06:42:54.473Z,99455.50
2024-03-16T06:45:21.039Z,99462.25
2024-03-16T06:47:47.645Z,99471.25
2024-03-16T06:50:14.422Z,99463.19
2024-03-16T06:52:41.094Z,99465.88
2024-03-16T06:55:10.734Z,99481.31
2024-03-16T06:57:37.348Z,99470.59
2024-03-16T07:00:05.088Z,99489.56
2024-03-16T07:02:31.872Z,99493.47
2024-03-16T07:04:58.463Z,99491.94
2024-03-16T07:07:24.975Z,99490.72
2024-03-16T07:09:51.644Z,99496.53
2024-03-16T07:12:18.208Z,99499.56
2024-03-16T07:14:44.842Z,99503.38
2024-03-16T07:17:11.399Z,99500.41
2024-03-16T07:19:38.070Z,99505.69
2024-03-16T07:22:04.829Z,99505.41
2024-03-16T07:24:31.456Z,99506.91
2024-03-16T07:26:58.073Z,99514.63
2024-03-16T07:29:25.208Z,99515.72
2024-03-16T07:31:52.003Z,99519.81
2024-03-16T07:34:18.859Z,99520.91
2024-03-16T07:36:45.795Z,99539.31
2024-03-16T07:39:12.504Z,99534.50
2024-03-16T07:41:39.178Z,99538.81
2024-03-16T07:44:05.721Z,99540.22
2024-03-16T07:46:32.250Z,99552.53
2024-03-16T07:49:00.656Z,99536.38
2024-03-16T07:51:30.339Z,99555.09
2024-03-16T07:53:57.102Z,99556.72
2024-03-16T07:56:23.660Z,99567.38
2024-03-16T07:58:50.718Z,99561.78
2024-03-16T08:01:17.638Z,99570.53
2024-03-16T08:03:44.663Z,99567.69
2024-03-16T08:06:12.116Z,99563.25
2024-03-16T08:08:40.047Z,99574.41
2024-03-16T08:11:08.392Z,99574.31
2024-03-16T08:13:37.943Z,99578.00
2024-03-16T08:16:05.158Z,99577.78
2024-03-16T08:18:31.749Z,99588.41
2024-03-16T08:20:59.021Z,99588.00
2024-03-16T08:23:26.202Z,99586.81
2024-03-16T08:25:52.935Z,99596.56
2024-03-16T08:28:19.593Z,99597.66
2024-03-16T08:30:46.378Z,99595.19
2024-03-16T08:33:13.014Z,99602.47
2024-03-16T08:35:40.138Z,99605.41
2024-03-16T08:38:06.768Z,99602.53
2024-03-16T08:40:34.046Z,99604.94
2024-03-16T08:43:00.832Z,99618.47
2024-03-16T08:45:27.511Z,99612.47
2024-03-16T08:47:54.124Z,99616.78
2024-03-16T08:50:20.770Z,99624.91
2024-03-16T08:52:48.362Z,99635.84
2024-03-16T08:55:15.257Z,99629.84
2024-03-16T08:57:42.814Z,99630.16
2024-03-16T09:00:13.777Z,99641.50
2024-03-16T09:02:40.310Z,99638.78
2024-03-16T09:05:09.736Z,99633.47
2024-03-16T09:07:39.103Z,99639.69
2024-03-16T09:10:09.725Z,99651.34
2024-03-16T09:12:36.483Z,99657.94
2024-03-16T09:15:06.703Z,99655.22
2024-03-16T09:17:36.377Z,99669.00
2024-03-16T09:20:09.575Z,99679.22
2024-03-16T09:22:36.352Z,99687.06
2024-03-16T09:25:07.238Z,99673.19
2024-03-16T09:27:35.291Z,99677.63
2024-03-16T09:30:02.899Z,99675.03
2024-03-16T09:32:29.470Z,99675.41
2024-03-16T09:34:56.152Z,99680.22
2024-03-16T09:37:22.894Z,99683.06
2024-03-16T09:39:49.681Z,99684.88
2024-03-16T09:42:16.284Z,99676.31
